Ultramar IV — XCUI6 — position and weather

sailwx.info

Track history (hours):
 
Tides and Currents Weather Stations Pressure Air Temp Water Temp Dewpoint Dewpoint Depression Visibility Wind Speed Wind Dir Waves Ship Positions

Ultramar IV

Last reported at 2018-Apr-20 13:43 UTC. Time now 2018-Apr-20 14:28 UTC.
Position N 20°32' W 086°60'.

Length 13 m; draft 9.9 m.

Type: Passenger vessel. MMSI: 345110012.

Date/timePositionNaut miles runAvg speedWind from/ knotsBaromVisibWave heightAir tempDewpointWater temp
2018-Apr-20 13:43N 20°32' W 086°60'314.4
2018-Apr-20 13:30N 20°31' W 086°57'0 0.1
2018-Apr-20 13:00N 20°30' W 086°57'0 0.0
2018-Apr-20 12:30N 20°30' W 086°57'0 0.1
2018-Apr-20 12:01N 20°31' W 086°57'0 0.7
2018-Apr-20 11:30N 20°31' W 086°57'0 0.0
2018-Apr-20 11:00N 20°31' W 086°57'0 0.0
2018-Apr-20 10:30N 20°31' W 086°57'0 0.0
2018-Apr-20 10:00N 20°31' W 086°57'0 0.0
2018-Apr-20 09:26N 20°31' W 086°57'0 0.0
2018-Apr-20 08:59N 20°31' W 086°57'0 0.0
2018-Apr-20 08:27N 20°31' W 086°57'0 0.0
2018-Apr-20 08:00N 20°31' W 086°57'0 0.0
2018-Apr-20 07:30N 20°31' W 086°57'0 0.0
2018-Apr-20 06:59N 20°31' W 086°57'0 0.0
2018-Apr-20 06:30N 20°31' W 086°57'0 0.0
2018-Apr-20 06:00N 20°31' W 086°57'0 0.0
2018-Apr-20 05:30N 20°31' W 086°57'0 0.0
2018-Apr-20 05:00N 20°31' W 086°57'0 0.0
2018-Apr-20 04:30N 20°31' W 086°57'0 0.0
2018-Apr-20 04:00N 20°31' W 086°57'0 0.0
2018-Apr-20 03:30N 20°31' W 086°57'0 0.0
2018-Apr-20 03:00N 20°31' W 086°57'0 0.0
2018-Apr-20 02:30N 20°31' W 086°57'0 0.0
2018-Apr-20 01:59N 20°31' W 086°57'0 0.0
2018-Apr-20 01:30N 20°31' W 086°57'0 0.0
2018-Apr-20 01:00N 20°31' W 086°57'0 0.0
2018-Apr-20 00:30N 20°31' W 086°57'0 0.0
2018-Apr-20 00:00N 20°31' W 086°57'0 0.0
2018-Apr-19 23:29N 20°31' W 086°57'0 0.9
2018-Apr-19 23:00N 20°31' W 086°57'0 0.8
2018-Apr-19 22:30N 20°31' W 086°57'3 3.5
2018-Apr-19 21:45N 20°29' W 086°59'4 1.8
2018-Apr-19 19:42N 20°32' W 086°60'314.4
2018-Apr-19 19:30N 20°31' W 086°57'2 4.9
2018-Apr-19 19:00N 20°32' W 086°59'2 0.4
2018-Apr-19 14:50N 20°30' W 087°00'2 3.5
2018-Apr-19 14:12N 20°29' W 086°59'0 0.2
2018-Apr-19 14:00N 20°29' W 086°59'1 1.2
2018-Apr-19 13:30N 20°29' W 086°59'2 4.2
2018-Apr-19 13:01N 20°31' W 086°57'0 0.0
2018-Apr-19 12:22N 20°31' W 086°57'0 0.0
2018-Apr-19 11:52N 20°31' W 086°57'0 0.0
2018-Apr-19 11:30N 20°31' W 086°57'0 0.0
2018-Apr-19 11:01N 20°31' W 086°57'0 0.0
2018-Apr-19 10:30N 20°31' W 086°57'0 0.0
2018-Apr-19 10:01N 20°31' W 086°57'0 0.0
2018-Apr-19 09:30N 20°31' W 086°57'0 0.0
2018-Apr-19 09:00N 20°31' W 086°57'0 0.0
2018-Apr-19 08:31N 20°31' W 086°57'0 0.0
2018-Apr-19 08:00N 20°31' W 086°57'0 0.0
2018-Apr-19 07:31N 20°31' W 086°57'0 0.0
2018-Apr-19 06:59N 20°31' W 086°57'0 0.0
2018-Apr-19 06:31N 20°31' W 086°57'0 0.0
2018-Apr-19 06:01N 20°31' W 086°57'0 0.0
2018-Apr-19 05:30N 20°31' W 086°57'0 0.0
2018-Apr-19 05:00N 20°31' W 086°57'0 0.0
2018-Apr-19 04:29N 20°31' W 086°57'0 0.0
2018-Apr-19 04:00N 20°31' W 086°57'0 0.0
2018-Apr-19 03:31N 20°31' W 086°57'0 0.0
2018-Apr-19 03:01N 20°31' W 086°57'0 0.0
2018-Apr-19 02:30N 20°31' W 086°57'0 0.0
2018-Apr-19 02:00N 20°31' W 086°57'0 0.0
2018-Apr-19 01:31N 20°31' W 086°57'0 0.9
2018-Apr-19 01:01N 20°31' W 086°57'3 5.6
2018-Apr-19 00:30N 20°29' W 086°59'3 0.3
2018-Apr-18 16:19N 20°31' W 087°00'3 4.9
2018-Apr-18 15:47N 20°29' W 086°59'0 1.0
2018-Apr-18 15:29N 20°29' W 086°59'0 0.5
2018-Apr-18 15:01N 20°29' W 086°59'2 4.1
2018-Apr-18 14:25N 20°31' W 086°57'0 0.0
2018-Apr-18 14:00N 20°31' W 086°57'0 0.0
2018-Apr-18 13:28N 20°31' W 086°57'0 0.0
2018-Apr-18 13:00N 20°31' W 086°57'0 0.0
2018-Apr-18 12:30N 20°31' W 086°57'0 0.0
2018-Apr-18 12:00N 20°31' W 086°57'0 0.0
2018-Apr-18 11:28N 20°31' W 086°57'0 0.0
2018-Apr-18 11:00N 20°31' W 086°57'0 0.0
2018-Apr-18 10:30N 20°31' W 086°57'0 0.0
2018-Apr-18 09:58N 20°31' W 086°57'0 0.0
2018-Apr-18 09:30N 20°31' W 086°57'0 0.0
2018-Apr-18 09:00N 20°31' W 086°57'0 0.0
2018-Apr-18 08:30N 20°31' W 086°57'0 0.0
2018-Apr-18 08:00N 20°31' W 086°57'0 0.0
2018-Apr-18 07:30N 20°31' W 086°57'0 0.0
2018-Apr-18 07:00N 20°31' W 086°57'0 0.0
2018-Apr-18 06:30N 20°31' W 086°57'0 0.0
2018-Apr-18 06:00N 20°31' W 086°57'0 0.0
2018-Apr-18 05:30N 20°31' W 086°57'0 0.0
2018-Apr-18 05:00N 20°31' W 086°57'0 0.0
2018-Apr-18 04:30N 20°31' W 086°57'0 0.0
2018-Apr-18 04:00N 20°31' W 086°57'0 0.0
2018-Apr-18 03:30N 20°31' W 086°57'0 0.0
2018-Apr-18 03:00N 20°31' W 086°57'0 0.0
2018-Apr-18 02:30N 20°31' W 086°57'0 0.0
2018-Apr-18 02:00N 20°31' W 086°57'0 0.1
2018-Apr-18 01:30N 20°31' W 086°57'3 5.3
2018-Apr-18 01:01N 20°32' W 086°59'0 0.1
2018-Apr-17 23:44N 20°32' W 086°59'311.9
2018-Apr-17 23:30N 20°31' W 086°57'0 0.5
2018-Apr-17 23:00N 20°31' W 086°57'2 4.7
2018-Apr-17 22:30N 20°29' W 086°59'2 0.3
2018-Apr-17 14:31N 20°31' W 087°00'018.3
2018-Apr-17 14:30N 20°30' W 087°00'2 4.5
2018-Apr-17 14:00N 20°29' W 086°59'0 0.3
2018-Apr-17 13:30N 20°29' W 086°59'0 0.0
2018-Apr-17 13:00N 20°29' W 086°59'3 5.1
2018-Apr-17 12:30N 20°31' W 086°57'0 0.0
2018-Apr-17 12:00N 20°31' W 086°57'0 0.0
2018-Apr-17 11:31N 20°31' W 086°57'0 0.0
2018-Apr-17 11:00N 20°31' W 086°57'0 0.0
2018-Apr-17 10:31N 20°31' W 086°57'0 0.0
2018-Apr-17 10:00N 20°31' W 086°57'0 0.0
2018-Apr-17 09:30N 20°31' W 086°57'0 0.0
2018-Apr-17 09:00N 20°31' W 086°57'0 0.0
2018-Apr-17 08:31N 20°31' W 086°57'0 0.0
2018-Apr-17 08:00N 20°31' W 086°57'0 0.0
2018-Apr-17 07:30N 20°31' W 086°57'0 0.0
2018-Apr-17 07:01N 20°31' W 086°57'0 0.0
2018-Apr-17 06:31N 20°31' W 086°57'0 0.0
2018-Apr-17 06:01N 20°31' W 086°57'0 0.0
2018-Apr-17 05:30N 20°31' W 086°57'0 0.0
2018-Apr-17 05:01N 20°31' W 086°57'0 0.0
2018-Apr-17 04:30N 20°31' W 086°57'0 0.0
2018-Apr-17 04:00N 20°31' W 086°57'0 0.0
2018-Apr-17 03:30N 20°31' W 086°57'0 0.0
2018-Apr-17 03:00N 20°31' W 086°57'0 0.0
2018-Apr-17 02:30N 20°31' W 086°57'0 0.3
2018-Apr-17 02:00N 20°31' W 086°57'0 0.2
2018-Apr-17 01:12N 20°31' W 086°57'3 2.0
2018-Apr-16 23:48N 20°33' W 086°59'3 9.8
2018-Apr-16 23:30N 20°31' W 086°57'0 0.1
2018-Apr-16 23:00N 20°31' W 086°57'0 0.0
2018-Apr-16 22:30N 20°31' W 086°57'3 5.1
2018-Apr-16 22:00N 20°29' W 086°59'3 0.3
2018-Apr-16 13:38N 20°31' W 087°00'216.8
2018-Apr-16 13:30N 20°29' W 086°59'1 1.0
2018-Apr-16 13:00N 20°29' W 086°59'1 2.1
2018-Apr-16 12:29N 20°30' W 086°59'2 3.7
2018-Apr-16 11:59N 20°31' W 086°57'0 0.0
2018-Apr-16 11:30N 20°31' W 086°57'0 0.0
2018-Apr-16 11:00N 20°31' W 086°57'0 0.0
2018-Apr-16 10:30N 20°31' W 086°57'0 0.0
2018-Apr-16 10:00N 20°31' W 086°57'0 0.0
2018-Apr-16 09:30N 20°31' W 086°57'0 0.0
2018-Apr-16 09:00N 20°31' W 086°57'0 0.0
2018-Apr-16 08:30N 20°31' W 086°57'0 0.0
2018-Apr-16 08:00N 20°31' W 086°57'0 0.0
2018-Apr-16 07:30N 20°31' W 086°57'0 0.0
2018-Apr-16 06:59N 20°31' W 086°57'0 0.0
2018-Apr-16 06:30N 20°31' W 086°57'0 0.0
2018-Apr-16 06:00N 20°31' W 086°57'0 0.0
2018-Apr-16 05:30N 20°31' W 086°57'0 0.0
2018-Apr-16 04:57N 20°31' W 086°57'0 0.0
2018-Apr-16 04:30N 20°31' W 086°57'0 0.1
2018-Apr-16 04:00N 20°31' W 086°57'3 1.8
2018-Apr-16 02:18N 20°32' W 086°60'310.4
2018-Apr-16 02:00N 20°31' W 086°57'0 0.0
2018-Apr-16 01:30N 20°31' W 086°57'0 0.1
2018-Apr-16 01:00N 20°31' W 086°57'0 0.0
2018-Apr-16 00:30N 20°31' W 086°57'0 0.0
2018-Apr-16 00:00N 20°31' W 086°57'0 0.0
2018-Apr-15 23:29N 20°31' W 086°57'0 0.1
2018-Apr-15 23:00N 20°31' W 086°57'0 0.0
2018-Apr-15 22:30N 20°31' W 086°57'0 0.0
2018-Apr-15 22:00N 20°31' W 086°57'0 0.0
2018-Apr-15 21:30N 20°31' W 086°57'0 0.0
2018-Apr-15 21:00N 20°31' W 086°57'0 0.0
2018-Apr-15 20:30N 20°31' W 086°57'4 7.5
2018-Apr-15 20:00N 20°33' W 087°00'1 0.7
2018-Apr-15 18:49N 20°33' W 086°60'310.3
2018-Apr-15 18:30N 20°31' W 086°57'3 1.6
2018-Apr-15 16:44N 20°33' W 086°59'312.1
2018-Apr-15 16:30N 20°31' W 086°57'3 1.4
2018-Apr-15 14:42N 20°33' W 086°59'313.4
2018-Apr-15 14:30N 20°31' W 086°57'1 1.9
2018-Apr-15 14:00N 20°32' W 086°57'1 1.8
2018-Apr-15 13:28N 20°31' W 086°57'0 0.0
2018-Apr-15 12:58N 20°31' W 086°57'3 1.9
2018-Apr-15 11:07N 20°33' W 086°60'218.6
2018-Apr-15 11:00N 20°31' W 086°58'1 2.6
2018-Apr-15 10:30N 20°31' W 086°57'0 0.1
2018-Apr-15 10:00N 20°31' W 086°57'0 0.0
2018-Apr-15 09:30N 20°31' W 086°57'0 0.0
2018-Apr-15 09:00N 20°31' W 086°57'0 0.0
2018-Apr-15 08:30N 20°31' W 086°57'0 0.0
2018-Apr-15 07:58N 20°31' W 086°57'0 0.0
2018-Apr-15 07:30N 20°31' W 086°57'0 0.0
2018-Apr-15 07:00N 20°31' W 086°57'0 0.0
2018-Apr-15 06:30N 20°31' W 086°57'0 0.0
2018-Apr-15 06:00N 20°31' W 086°57'0 0.0
2018-Apr-15 05:30N 20°31' W 086°57'0 0.0
2018-Apr-15 05:00N 20°31' W 086°57'0 0.0
2018-Apr-15 04:30N 20°31' W 086°57'1 1.4
2018-Apr-15 04:00N 20°31' W 086°57'1 1.3
2018-Apr-15 03:30N 20°31' W 086°57'0 0.1
2018-Apr-15 02:58N 20°31' W 086°57'4 2.3
2018-Apr-15 01:26N 20°33' W 087°00'3 8.2
2018-Apr-15 01:00N 20°31' W 086°57'3 1.9
2018-Apr-14 23:21N 20°33' W 086°60'3 9.3
2018-Apr-14 23:00N 20°31' W 086°57'3 1.8
2018-Apr-14 21:21N 20°33' W 086°60'3 8.9
2018-Apr-14 21:00N 20°31' W 086°57'0 0.1
2018-Apr-14 20:30N 20°31' W 086°57'0 0.0
2018-Apr-14 20:00N 20°31' W 086°57'0 0.1
2018-Apr-14 19:30N 20°31' W 086°57'3 5.8
2018-Apr-14 19:01N 20°33' W 086°59'1 0.4
2018-Apr-14 17:06N 20°32' W 086°59'2 1.6
2018-Apr-14 15:50N 20°33' W 087°00'412.0
2018-Apr-14 15:31N 20°31' W 086°57'3 1.9
2018-Apr-14 13:46N 20°33' W 086°60'312.6
2018-Apr-14 13:30N 20°31' W 086°57'0 0.1
2018-Apr-14 12:58N 20°31' W 086°57'0 0.0
2018-Apr-14 12:30N 20°31' W 086°57'0 0.0
2018-Apr-14 12:00N 20°31' W 086°57'0 0.0
2018-Apr-14 11:30N 20°31' W 086°57'0 0.0
2018-Apr-14 10:58N 20°31' W 086°57'0 0.0
2018-Apr-14 10:30N 20°31' W 086°57'0 0.0
2018-Apr-14 10:00N 20°31' W 086°57'0 0.0
2018-Apr-14 09:30N 20°31' W 086°57'0 0.0
2018-Apr-14 09:00N 20°31' W 086°57'0 0.0
2018-Apr-14 08:30N 20°31' W 086°57'0 0.0
2018-Apr-14 08:00N 20°31' W 086°57'0 0.0
2018-Apr-14 07:30N 20°31' W 086°57'0 0.0
2018-Apr-14 07:00N 20°31' W 086°57'0 0.0
2018-Apr-14 06:30N 20°31' W 086°57'0 0.0
2018-Apr-14 06:00N 20°31' W 086°57'0 0.0
2018-Apr-14 05:30N 20°31' W 086°57'0 0.0
2018-Apr-14 04:59N 20°31' W 086°57'0 0.0
2018-Apr-14 04:30N 20°31' W 086°57'0 0.1
2018-Apr-14 04:00N 20°31' W 086°57'2 1.4
2018-Apr-14 02:17N 20°33' W 086°59'2 8.7
2018-Apr-14 02:00N 20°31' W 086°57'3 1.9
2018-Apr-14 00:21N 20°32' W 086°60'3 8.9
2018-Apr-14 00:00N 20°31' W 086°57'3 1.9
2018-Apr-13 22:24N 20°33' W 086°59'3 7.7
2018-Apr-13 22:00N 20°31' W 086°57'3 1.7
2018-Apr-13 20:18N 20°33' W 086°59'3 9.6
2018-Apr-13 20:00N 20°31' W 086°57'3 1.9
2018-Apr-13 18:17N 20°33' W 086°60'311.8
2018-Apr-13 18:00N 20°31' W 086°57'3 1.8
2018-Apr-13 16:23N 20°33' W 086°59'3 7.4
2018-Apr-13 16:00N 20°31' W 086°57'3 1.7
2018-Apr-13 14:20N 20°32' W 086°60'3 5.4
2018-Apr-13 13:48N 20°31' W 086°57'3 1.8
2018-Apr-13 12:19N 20°32' W 086°59'3 8.4
2018-Apr-13 12:00N 20°31' W 086°57'0 0.1
2018-Apr-13 11:28N 20°31' W 086°57'0 0.0
2018-Apr-13 11:00N 20°31' W 086°57'0 0.0
2018-Apr-13 10:30N 20°31' W 086°57'0 0.0
2018-Apr-13 10:00N 20°31' W 086°57'0 0.0
2018-Apr-13 09:30N 20°31' W 086°57'0 0.0
2018-Apr-13 09:00N 20°31' W 086°57'0 0.0
2018-Apr-13 08:30N 20°31' W 086°57'0 0.0
2018-Apr-13 08:00N 20°31' W 086°57'0 0.0
2018-Apr-13 07:30N 20°31' W 086°57'0 0.0
2018-Apr-13 07:00N 20°31' W 086°57'0 0.0
2018-Apr-13 06:30N 20°31' W 086°57'0 0.0
2018-Apr-13 06:00N 20°31' W 086°57'0 0.0
2018-Apr-13 05:30N 20°31' W 086°57'0 0.0
2018-Apr-13 05:00N 20°31' W 086°57'0 0.0
2018-Apr-13 04:30N 20°31' W 086°57'0 0.1
2018-Apr-13 04:00N 20°31' W 086°57'3 5.7
2018-Apr-13 03:29N 20°33' W 086°60'1 0.5
2018-Apr-13 02:17N 20°32' W 086°59'2 8.8
2018-Apr-13 02:01N 20°31' W 086°57'3 1.6
2018-Apr-13 00:18N 20°32' W 086°59'3 9.5
2018-Apr-13 00:00N 20°31' W 086°57'4 7.1
2018-Apr-12 23:29N 20°33' W 087°00'1 0.6
2018-Apr-12 22:15N 20°33' W 086°59'312.8
2018-Apr-12 22:00N 20°31' W 086°57'3 6.3
2018-Apr-12 21:30N 20°32' W 086°60'1 0.8
2018-Apr-12 20:16N 20°32' W 086°59'2 8.5
2018-Apr-12 20:00N 20°31' W 086°57'3 6.0
2018-Apr-12 19:30N 20°33' W 086°60'0 0.2
2018-Apr-12 18:15N 20°32' W 086°59'311.4
2018-Apr-12 18:01N 20°31' W 086°57'3 1.8
2018-Apr-12 16:18N 20°33' W 086°60'310.9
2018-Apr-12 16:00N 20°31' W 086°57'3 1.6
2018-Apr-12 14:19N 20°33' W 086°59'3 7.1
2018-Apr-12 13:56N 20°31' W 086°57'3 1.6
2018-Apr-12 12:16N 20°32' W 086°59'310.1
2018-Apr-12 12:00N 20°31' W 086°57'0 0.0
2018-Apr-12 11:30N 20°31' W 086°57'0 0.1
2018-Apr-12 11:00N 20°31' W 086°57'0 0.7
2018-Apr-12 10:30N 20°31' W 086°57'0 0.0
2018-Apr-12 10:01N 20°31' W 086°57'0 0.0
2018-Apr-12 09:30N 20°31' W 086°57'0 0.0
2018-Apr-12 09:00N 20°31' W 086°57'0 0.0
2018-Apr-12 08:30N 20°31' W 086°57'0 0.0
2018-Apr-12 08:00N 20°31' W 086°57'0 0.0
2018-Apr-12 07:31N 20°31' W 086°57'0 0.0
2018-Apr-12 07:01N 20°31' W 086°57'0 0.0
2018-Apr-12 06:30N 20°31' W 086°57'0 0.0
2018-Apr-12 06:00N 20°31' W 086°57'0 0.0
2018-Apr-12 05:30N 20°31' W 086°57'0 0.0
2018-Apr-12 05:01N 20°31' W 086°57'0 0.0
2018-Apr-12 04:29N 20°31' W 086°57'0 0.0
2018-Apr-12 04:00N 20°31' W 086°57'0 0.0
2018-Apr-12 03:31N 20°31' W 086°57'0 0.0
2018-Apr-12 03:00N 20°31' W 086°57'0 0.3
2018-Apr-12 01:44N 20°31' W 086°57'3 2.1
2018-Apr-12 00:20N 20°33' W 086°59'3 9.0
2018-Apr-12 00:00N 20°31' W 086°57'3 1.5
2018-Apr-11 22:19N 20°32' W 086°59'3 8.3
2018-Apr-11 22:00N 20°31' W 086°57'4 2.2
2018-Apr-11 20:21N 20°33' W 087°00'410.6
2018-Apr-11 20:00N 20°31' W 086°57'3 1.6
2018-Apr-11 18:16N 20°32' W 086°59'310.5
2018-Apr-11 18:00N 20°31' W 086°57'2 1.3
2018-Apr-11 16:15N 20°32' W 086°59'2 9.5
2018-Apr-11 16:00N 20°31' W 086°57'3 1.7
2018-Apr-11 14:16N 20°33' W 086°59'310.5
2018-Apr-11 13:59N 20°31' W 086°57'2 1.2
2018-Apr-11 12:14N 20°32' W 086°59'2 9.6
2018-Apr-11 12:00N 20°31' W 086°57'0 0.2
2018-Apr-11 11:31N 20°31' W 086°57'0 0.1
2018-Apr-11 10:59N 20°31' W 086°57'0 0.0
2018-Apr-11 10:30N 20°31' W 086°57'0 0.0
2018-Apr-11 10:00N 20°31' W 086°57'0 0.0
2018-Apr-11 09:30N 20°31' W 086°57'0 0.0
2018-Apr-11 09:01N 20°31' W 086°57'0 0.0
2018-Apr-11 08:30N 20°31' W 086°57'0 0.0
2018-Apr-11 08:01N 20°31' W 086°57'0 0.0
2018-Apr-11 07:30N 20°31' W 086°57'0 0.0
2018-Apr-11 07:00N 20°31' W 086°57'0 0.0
2018-Apr-11 06:30N 20°31' W 086°57'0 0.0
2018-Apr-11 05:59N 20°31' W 086°57'0 0.0
2018-Apr-11 05:30N 20°31' W 086°57'0 0.0
2018-Apr-11 05:01N 20°31' W 086°57'0 0.0
2018-Apr-11 04:29N 20°31' W 086°57'0 0.1
2018-Apr-11 03:58N 20°31' W 086°57'3 1.5
2018-Apr-11 02:17N 20°32' W 086°59'3 9.5
2018-Apr-11 02:00N 20°31' W 086°57'3 1.5
2018-Apr-11 00:14N 20°33' W 086°59'312.2
2018-Apr-11 00:01N 20°31' W 086°57'3 1.8
2018-Apr-10 22:20N 20°33' W 086°60'3 9.6
2018-Apr-10 22:01N 20°31' W 086°57'3 1.5
2018-Apr-10 20:15N 20°32' W 086°59'311.2
2018-Apr-10 20:00N 20°31' W 086°57'2 1.3
2018-Apr-10 18:14N 20°32' W 086°59'2 7.0
2018-Apr-10 17:54N 20°31' W 086°57'3 1.6
2018-Apr-10 16:17N 20°33' W 086°59'3 9.2
2018-Apr-10 16:00N 20°31' W 086°57'2 1.2
2018-Apr-10 14:14N 20°32' W 086°59'2 8.0
2018-Apr-10 13:59N 20°31' W 086°57'  
Track history (hours):
 
Tides and Currents Weather Stations Pressure Air Temp Water Temp Dewpoint Dewpoint Depression Visibility Wind Speed Wind Dir Waves Ship Positions

Ultramar IV

Last reported at 2018-Apr-20 13:43 UTC. Time now 2018-Apr-20 14:28 UTC.
Position N 20°32' W 086°60'.

Length 13 m; draft 9.9 m.

Type: Passenger vessel. MMSI: 345110012.

Date/timePositionNaut miles runAvg speedWind from/ knotsBaromVisibWave heightAir tempDewpointWater temp
2018-Apr-20 13:43N 20°32' W 086°60'314.4
2018-Apr-20 13:30N 20°31' W 086°57'0 0.1
2018-Apr-20 13:00N 20°30' W 086°57'0 0.0
2018-Apr-20 12:30N 20°30' W 086°57'0 0.1
2018-Apr-20 12:01N 20°31' W 086°57'0 0.7
2018-Apr-20 11:30N 20°31' W 086°57'0 0.0
2018-Apr-20 11:00N 20°31' W 086°57'0 0.0
2018-Apr-20 10:30N 20°31' W 086°57'0 0.0
2018-Apr-20 10:00N 20°31' W 086°57'0 0.0
2018-Apr-20 09:26N 20°31' W 086°57'0 0.0
2018-Apr-20 08:59N 20°31' W 086°57'0 0.0
2018-Apr-20 08:27N 20°31' W 086°57'0 0.0
2018-Apr-20 08:00N 20°31' W 086°57'0 0.0
2018-Apr-20 07:30N 20°31' W 086°57'0 0.0
2018-Apr-20 06:59N 20°31' W 086°57'0 0.0
2018-Apr-20 06:30N 20°31' W 086°57'0 0.0
2018-Apr-20 06:00N 20°31' W 086°57'0 0.0
2018-Apr-20 05:30N 20°31' W 086°57'0 0.0
2018-Apr-20 05:00N 20°31' W 086°57'0 0.0
2018-Apr-20 04:30N 20°31' W 086°57'0 0.0
2018-Apr-20 04:00N 20°31' W 086°57'0 0.0
2018-Apr-20 03:30N 20°31' W 086°57'0 0.0
2018-Apr-20 03:00N 20°31' W 086°57'0 0.0
2018-Apr-20 02:30N 20°31' W 086°57'0 0.0
2018-Apr-20 01:59N 20°31' W 086°57'0 0.0
2018-Apr-20 01:30N 20°31' W 086°57'0 0.0
2018-Apr-20 01:00N 20°31' W 086°57'0 0.0
2018-Apr-20 00:30N 20°31' W 086°57'0 0.0
2018-Apr-20 00:00N 20°31' W 086°57'0 0.0
2018-Apr-19 23:29N 20°31' W 086°57'0 0.9
2018-Apr-19 23:00N 20°31' W 086°57'0 0.8
2018-Apr-19 22:30N 20°31' W 086°57'3 3.5
2018-Apr-19 21:45N 20°29' W 086°59'4 1.8
2018-Apr-19 19:42N 20°32' W 086°60'314.4
2018-Apr-19 19:30N 20°31' W 086°57'2 4.9
2018-Apr-19 19:00N 20°32' W 086°59'2 0.4
2018-Apr-19 14:50N 20°30' W 087°00'2 3.5
2018-Apr-19 14:12N 20°29' W 086°59'0 0.2
2018-Apr-19 14:00N 20°29' W 086°59'1 1.2
2018-Apr-19 13:30N 20°29' W 086°59'2 4.2
2018-Apr-19 13:01N 20°31' W 086°57'0 0.0
2018-Apr-19 12:22N 20°31' W 086°57'0 0.0
2018-Apr-19 11:52N 20°31' W 086°57'0 0.0
2018-Apr-19 11:30N 20°31' W 086°57'0 0.0
2018-Apr-19 11:01N 20°31' W 086°57'0 0.0
2018-Apr-19 10:30N 20°31' W 086°57'0 0.0
2018-Apr-19 10:01N 20°31' W 086°57'0 0.0
2018-Apr-19 09:30N 20°31' W 086°57'0 0.0
2018-Apr-19 09:00N 20°31' W 086°57'0 0.0
2018-Apr-19 08:31N 20°31' W 086°57'0 0.0
2018-Apr-19 08:00N 20°31' W 086°57'0 0.0
2018-Apr-19 07:31N 20°31' W 086°57'0 0.0
2018-Apr-19 06:59N 20°31' W 086°57'0 0.0
2018-Apr-19 06:31N 20°31' W 086°57'0 0.0
2018-Apr-19 06:01N 20°31' W 086°57'0 0.0
2018-Apr-19 05:30N 20°31' W 086°57'0 0.0
2018-Apr-19 05:00N 20°31' W 086°57'0 0.0
2018-Apr-19 04:29N 20°31' W 086°57'0 0.0
2018-Apr-19 04:00N 20°31' W 086°57'0 0.0
2018-Apr-19 03:31N 20°31' W 086°57'0 0.0
2018-Apr-19 03:01N 20°31' W 086°57'0 0.0
2018-Apr-19 02:30N 20°31' W 086°57'0 0.0
2018-Apr-19 02:00N 20°31' W 086°57'0 0.0
2018-Apr-19 01:31N 20°31' W 086°57'0 0.9
2018-Apr-19 01:01N 20°31' W 086°57'3 5.6
2018-Apr-19 00:30N 20°29' W 086°59'3 0.3
2018-Apr-18 16:19N 20°31' W 087°00'3 4.9
2018-Apr-18 15:47N 20°29' W 086°59'0 1.0
2018-Apr-18 15:29N 20°29' W 086°59'0 0.5
2018-Apr-18 15:01N 20°29' W 086°59'2 4.1
2018-Apr-18 14:25N 20°31' W 086°57'0 0.0
2018-Apr-18 14:00N 20°31' W 086°57'0 0.0
2018-Apr-18 13:28N 20°31' W 086°57'0 0.0
2018-Apr-18 13:00N 20°31' W 086°57'0 0.0
2018-Apr-18 12:30N 20°31' W 086°57'0 0.0
2018-Apr-18 12:00N 20°31' W 086°57'0 0.0
2018-Apr-18 11:28N 20°31' W 086°57'0 0.0
2018-Apr-18 11:00N 20°31' W 086°57'0 0.0
2018-Apr-18 10:30N 20°31' W 086°57'0 0.0
2018-Apr-18 09:58N 20°31' W 086°57'0 0.0
2018-Apr-18 09:30N 20°31' W 086°57'0 0.0
2018-Apr-18 09:00N 20°31' W 086°57'0 0.0
2018-Apr-18 08:30N 20°31' W 086°57'0 0.0
2018-Apr-18 08:00N 20°31' W 086°57'0 0.0
2018-Apr-18 07:30N 20°31' W 086°57'0 0.0
2018-Apr-18 07:00N 20°31' W 086°57'0 0.0
2018-Apr-18 06:30N 20°31' W 086°57'0 0.0
2018-Apr-18 06:00N 20°31' W 086°57'0 0.0
2018-Apr-18 05:30N 20°31' W 086°57'0 0.0
2018-Apr-18 05:00N 20°31' W 086°57'0 0.0
2018-Apr-18 04:30N 20°31' W 086°57'0 0.0
2018-Apr-18 04:00N 20°31' W 086°57'0 0.0
2018-Apr-18 03:30N 20°31' W 086°57'0 0.0
2018-Apr-18 03:00N 20°31' W 086°57'0 0.0
2018-Apr-18 02:30N 20°31' W 086°57'0 0.0
2018-Apr-18 02:00N 20°31' W 086°57'0 0.1
2018-Apr-18 01:30N 20°31' W 086°57'3 5.3
2018-Apr-18 01:01N 20°32' W 086°59'0 0.1
2018-Apr-17 23:44N 20°32' W 086°59'311.9
2018-Apr-17 23:30N 20°31' W 086°57'0 0.5
2018-Apr-17 23:00N 20°31' W 086°57'2 4.7
2018-Apr-17 22:30N 20°29' W 086°59'2 0.3
2018-Apr-17 14:31N 20°31' W 087°00'018.3
2018-Apr-17 14:30N 20°30' W 087°00'2 4.5
2018-Apr-17 14:00N 20°29' W 086°59'0 0.3
2018-Apr-17 13:30N 20°29' W 086°59'0 0.0
2018-Apr-17 13:00N 20°29' W 086°59'3 5.1
2018-Apr-17 12:30N 20°31' W 086°57'0 0.0
2018-Apr-17 12:00N 20°31' W 086°57'0 0.0
2018-Apr-17 11:31N 20°31' W 086°57'0 0.0
2018-Apr-17 11:00N 20°31' W 086°57'0 0.0
2018-Apr-17 10:31N 20°31' W 086°57'0 0.0
2018-Apr-17 10:00N 20°31' W 086°57'0 0.0
2018-Apr-17 09:30N 20°31' W 086°57'0 0.0
2018-Apr-17 09:00N 20°31' W 086°57'0 0.0
2018-Apr-17 08:31N 20°31' W 086°57'0 0.0
2018-Apr-17 08:00N 20°31' W 086°57'0 0.0
2018-Apr-17 07:30N 20°31' W 086°57'0 0.0
2018-Apr-17 07:01N 20°31' W 086°57'0 0.0
2018-Apr-17 06:31N 20°31' W 086°57'0 0.0
2018-Apr-17 06:01N 20°31' W 086°57'0 0.0
2018-Apr-17 05:30N 20°31' W 086°57'0 0.0
2018-Apr-17 05:01N 20°31' W 086°57'0 0.0
2018-Apr-17 04:30N 20°31' W 086°57'0 0.0
2018-Apr-17 04:00N 20°31' W 086°57'0 0.0
2018-Apr-17 03:30N 20°31' W 086°57'0 0.0
2018-Apr-17 03:00N 20°31' W 086°57'0 0.0
2018-Apr-17 02:30N 20°31' W 086°57'0 0.3
2018-Apr-17 02:00N 20°31' W 086°57'0 0.2
2018-Apr-17 01:12N 20°31' W 086°57'3 2.0
2018-Apr-16 23:48N 20°33' W 086°59'3 9.8
2018-Apr-16 23:30N 20°31' W 086°57'0 0.1
2018-Apr-16 23:00N 20°31' W 086°57'0 0.0
2018-Apr-16 22:30N 20°31' W 086°57'3 5.1
2018-Apr-16 22:00N 20°29' W 086°59'3 0.3
2018-Apr-16 13:38N 20°31' W 087°00'216.8
2018-Apr-16 13:30N 20°29' W 086°59'1 1.0
2018-Apr-16 13:00N 20°29' W 086°59'1 2.1
2018-Apr-16 12:29N 20°30' W 086°59'2 3.7
2018-Apr-16 11:59N 20°31' W 086°57'0 0.0
2018-Apr-16 11:30N 20°31' W 086°57'0 0.0
2018-Apr-16 11:00N 20°31' W 086°57'0 0.0
2018-Apr-16 10:30N 20°31' W 086°57'0 0.0
2018-Apr-16 10:00N 20°31' W 086°57'0 0.0
2018-Apr-16 09:30N 20°31' W 086°57'0 0.0
2018-Apr-16 09:00N 20°31' W 086°57'0 0.0
2018-Apr-16 08:30N 20°31' W 086°57'0 0.0
2018-Apr-16 08:00N 20°31' W 086°57'0 0.0
2018-Apr-16 07:30N 20°31' W 086°57'0 0.0
2018-Apr-16 06:59N 20°31' W 086°57'0 0.0
2018-Apr-16 06:30N 20°31' W 086°57'0 0.0
2018-Apr-16 06:00N 20°31' W 086°57'0 0.0
2018-Apr-16 05:30N 20°31' W 086°57'0 0.0
2018-Apr-16 04:57N 20°31' W 086°57'0 0.0
2018-Apr-16 04:30N 20°31' W 086°57'0 0.1
2018-Apr-16 04:00N 20°31' W 086°57'3 1.8
2018-Apr-16 02:18N 20°32' W 086°60'310.4
2018-Apr-16 02:00N 20°31' W 086°57'0 0.0
2018-Apr-16 01:30N 20°31' W 086°57'0 0.1
2018-Apr-16 01:00N 20°31' W 086°57'0 0.0
2018-Apr-16 00:30N 20°31' W 086°57'0 0.0
2018-Apr-16 00:00N 20°31' W 086°57'0 0.0
2018-Apr-15 23:29N 20°31' W 086°57'0 0.1
2018-Apr-15 23:00N 20°31' W 086°57'0 0.0
2018-Apr-15 22:30N 20°31' W 086°57'0 0.0
2018-Apr-15 22:00N 20°31' W 086°57'0 0.0
2018-Apr-15 21:30N 20°31' W 086°57'0 0.0
2018-Apr-15 21:00N 20°31' W 086°57'0 0.0
2018-Apr-15 20:30N 20°31' W 086°57'4 7.5
2018-Apr-15 20:00N 20°33' W 087°00'1 0.7
2018-Apr-15 18:49N 20°33' W 086°60'310.3
2018-Apr-15 18:30N 20°31' W 086°57'3 1.6
2018-Apr-15 16:44N 20°33' W 086°59'312.1
2018-Apr-15 16:30N 20°31' W 086°57'3 1.4
2018-Apr-15 14:42N 20°33' W 086°59'313.4
2018-Apr-15 14:30N 20°31' W 086°57'1 1.9
2018-Apr-15 14:00N 20°32' W 086°57'1 1.8
2018-Apr-15 13:28N 20°31' W 086°57'0 0.0
2018-Apr-15 12:58N 20°31' W 086°57'3 1.9
2018-Apr-15 11:07N 20°33' W 086°60'218.6
2018-Apr-15 11:00N 20°31' W 086°58'1 2.6
2018-Apr-15 10:30N 20°31' W 086°57'0 0.1
2018-Apr-15 10:00N 20°31' W 086°57'0 0.0
2018-Apr-15 09:30N 20°31' W 086°57'0 0.0
2018-Apr-15 09:00N 20°31' W 086°57'0 0.0
2018-Apr-15 08:30N 20°31' W 086°57'0 0.0
2018-Apr-15 07:58N 20°31' W 086°57'0 0.0
2018-Apr-15 07:30N 20°31' W 086°57'0 0.0
2018-Apr-15 07:00N 20°31' W 086°57'0 0.0
2018-Apr-15 06:30N 20°31' W 086°57'0 0.0
2018-Apr-15 06:00N 20°31' W 086°57'0 0.0
2018-Apr-15 05:30N 20°31' W 086°57'0 0.0
2018-Apr-15 05:00N 20°31' W 086°57'0 0.0
2018-Apr-15 04:30N 20°31' W 086°57'1 1.4
2018-Apr-15 04:00N 20°31' W 086°57'1 1.3
2018-Apr-15 03:30N 20°31' W 086°57'0 0.1
2018-Apr-15 02:58N 20°31' W 086°57'4 2.3
2018-Apr-15 01:26N 20°33' W 087°00'3 8.2
2018-Apr-15 01:00N 20°31' W 086°57'3 1.9
2018-Apr-14 23:21N 20°33' W 086°60'3 9.3
2018-Apr-14 23:00N 20°31' W 086°57'3 1.8
2018-Apr-14 21:21N 20°33' W 086°60'3 8.9
2018-Apr-14 21:00N 20°31' W 086°57'0 0.1
2018-Apr-14 20:30N 20°31' W 086°57'0 0.0
2018-Apr-14 20:00N 20°31' W 086°57'0 0.1
2018-Apr-14 19:30N 20°31' W 086°57'3 5.8
2018-Apr-14 19:01N 20°33' W 086°59'1 0.4
2018-Apr-14 17:06N 20°32' W 086°59'2 1.6
2018-Apr-14 15:50N 20°33' W 087°00'412.0
2018-Apr-14 15:31N 20°31' W 086°57'3 1.9
2018-Apr-14 13:46N 20°33' W 086°60'312.6
2018-Apr-14 13:30N 20°31' W 086°57'0 0.1
2018-Apr-14 12:58N 20°31' W 086°57'0 0.0
2018-Apr-14 12:30N 20°31' W 086°57'0 0.0
2018-Apr-14 12:00N 20°31' W 086°57'0 0.0
2018-Apr-14 11:30N 20°31' W 086°57'0 0.0
2018-Apr-14 10:58N 20°31' W 086°57'0 0.0
2018-Apr-14 10:30N 20°31' W 086°57'0 0.0
2018-Apr-14 10:00N 20°31' W 086°57'0 0.0
2018-Apr-14 09:30N 20°31' W 086°57'0 0.0
2018-Apr-14 09:00N 20°31' W 086°57'0 0.0
2018-Apr-14 08:30N 20°31' W 086°57'0 0.0
2018-Apr-14 08:00N 20°31' W 086°57'0 0.0
2018-Apr-14 07:30N 20°31' W 086°57'0 0.0
2018-Apr-14 07:00N 20°31' W 086°57'0 0.0
2018-Apr-14 06:30N 20°31' W 086°57'0 0.0
2018-Apr-14 06:00N 20°31' W 086°57'0 0.0
2018-Apr-14 05:30N 20°31' W 086°57'0 0.0
2018-Apr-14 04:59N 20°31' W 086°57'0 0.0
2018-Apr-14 04:30N 20°31' W 086°57'0 0.1
2018-Apr-14 04:00N 20°31' W 086°57'2 1.4
2018-Apr-14 02:17N 20°33' W 086°59'2 8.7
2018-Apr-14 02:00N 20°31' W 086°57'3 1.9
2018-Apr-14 00:21N 20°32' W 086°60'3 8.9
2018-Apr-14 00:00N 20°31' W 086°57'3 1.9
2018-Apr-13 22:24N 20°33' W 086°59'3 7.7
2018-Apr-13 22:00N 20°31' W 086°57'3 1.7
2018-Apr-13 20:18N 20°33' W 086°59'3 9.6
2018-Apr-13 20:00N 20°31' W 086°57'3 1.9
2018-Apr-13 18:17N 20°33' W 086°60'311.8
2018-Apr-13 18:00N 20°31' W 086°57'3 1.8
2018-Apr-13 16:23N 20°33' W 086°59'3 7.4
2018-Apr-13 16:00N 20°31' W 086°57'3 1.7
2018-Apr-13 14:20N 20°32' W 086°60'3 5.4
2018-Apr-13 13:48N 20°31' W 086°57'3 1.8
2018-Apr-13 12:19N 20°32' W 086°59'3 8.4
2018-Apr-13 12:00N 20°31' W 086°57'0 0.1
2018-Apr-13 11:28N 20°31' W 086°57'0 0.0
2018-Apr-13 11:00N 20°31' W 086°57'0 0.0
2018-Apr-13 10:30N 20°31' W 086°57'0 0.0
2018-Apr-13 10:00N 20°31' W 086°57'0 0.0
2018-Apr-13 09:30N 20°31' W 086°57'0 0.0
2018-Apr-13 09:00N 20°31' W 086°57'0 0.0
2018-Apr-13 08:30N 20°31' W 086°57'0 0.0
2018-Apr-13 08:00N 20°31' W 086°57'0 0.0
2018-Apr-13 07:30N 20°31' W 086°57'0 0.0
2018-Apr-13 07:00N 20°31' W 086°57'0 0.0
2018-Apr-13 06:30N 20°31' W 086°57'0 0.0
2018-Apr-13 06:00N 20°31' W 086°57'0 0.0
2018-Apr-13 05:30N 20°31' W 086°57'0 0.0
2018-Apr-13 05:00N 20°31' W 086°57'0 0.0
2018-Apr-13 04:30N 20°31' W 086°57'0 0.1
2018-Apr-13 04:00N 20°31' W 086°57'3 5.7
2018-Apr-13 03:29N 20°33' W 086°60'1 0.5
2018-Apr-13 02:17N 20°32' W 086°59'2 8.8
2018-Apr-13 02:01N 20°31' W 086°57'3 1.6
2018-Apr-13 00:18N 20°32' W 086°59'3 9.5
2018-Apr-13 00:00N 20°31' W 086°57'4 7.1
2018-Apr-12 23:29N 20°33' W 087°00'1 0.6
2018-Apr-12 22:15N 20°33' W 086°59'312.8
2018-Apr-12 22:00N 20°31' W 086°57'3 6.3
2018-Apr-12 21:30N 20°32' W 086°60'1 0.8
2018-Apr-12 20:16N 20°32' W 086°59'2 8.5
2018-Apr-12 20:00N 20°31' W 086°57'3 6.0
2018-Apr-12 19:30N 20°33' W 086°60'0 0.2
2018-Apr-12 18:15N 20°32' W 086°59'311.4
2018-Apr-12 18:01N 20°31' W 086°57'3 1.8
2018-Apr-12 16:18N 20°33' W 086°60'310.9
2018-Apr-12 16:00N 20°31' W 086°57'3 1.6
2018-Apr-12 14:19N 20°33' W 086°59'3 7.1
2018-Apr-12 13:56N 20°31' W 086°57'3 1.6
2018-Apr-12 12:16N 20°32' W 086°59'310.1
2018-Apr-12 12:00N 20°31' W 086°57'0 0.0
2018-Apr-12 11:30N 20°31' W 086°57'0 0.1
2018-Apr-12 11:00N 20°31' W 086°57'0 0.7
2018-Apr-12 10:30N 20°31' W 086°57'0 0.0
2018-Apr-12 10:01N 20°31' W 086°57'0 0.0
2018-Apr-12 09:30N 20°31' W 086°57'0 0.0
2018-Apr-12 09:00N 20°31' W 086°57'0 0.0
2018-Apr-12 08:30N 20°31' W 086°57'0 0.0
2018-Apr-12 08:00N 20°31' W 086°57'0 0.0
2018-Apr-12 07:31N 20°31' W 086°57'0 0.0
2018-Apr-12 07:01N 20°31' W 086°57'0 0.0
2018-Apr-12 06:30N 20°31' W 086°57'0 0.0
2018-Apr-12 06:00N 20°31' W 086°57'0 0.0
2018-Apr-12 05:30N 20°31' W 086°57'0 0.0
2018-Apr-12 05:01N 20°31' W 086°57'0 0.0
2018-Apr-12 04:29N 20°31' W 086°57'0 0.0
2018-Apr-12 04:00N 20°31' W 086°57'0 0.0
2018-Apr-12 03:31N 20°31' W 086°57'0 0.0
2018-Apr-12 03:00N 20°31' W 086°57'0 0.3
2018-Apr-12 01:44N 20°31' W 086°57'3 2.1
2018-Apr-12 00:20N 20°33' W 086°59'3 9.0
2018-Apr-12 00:00N 20°31' W 086°57'3 1.5
2018-Apr-11 22:19N 20°32' W 086°59'3 8.3
2018-Apr-11 22:00N 20°31' W 086°57'4 2.2
2018-Apr-11 20:21N 20°33' W 087°00'410.6
2018-Apr-11 20:00N 20°31' W 086°57'3 1.6
2018-Apr-11 18:16N 20°32' W 086°59'310.5
2018-Apr-11 18:00N 20°31' W 086°57'2 1.3
2018-Apr-11 16:15N 20°32' W 086°59'2 9.5
2018-Apr-11 16:00N 20°31' W 086°57'3 1.7
2018-Apr-11 14:16N 20°33' W 086°59'310.5
2018-Apr-11 13:59N 20°31' W 086°57'2 1.2
2018-Apr-11 12:14N 20°32' W 086°59'2 9.6
2018-Apr-11 12:00N 20°31' W 086°57'0 0.2
2018-Apr-11 11:31N 20°31' W 086°57'0 0.1
2018-Apr-11 10:59N 20°31' W 086°57'0 0.0
2018-Apr-11 10:30N 20°31' W 086°57'0 0.0
2018-Apr-11 10:00N 20°31' W 086°57'0 0.0
2018-Apr-11 09:30N 20°31' W 086°57'0 0.0
2018-Apr-11 09:01N 20°31' W 086°57'0 0.0
2018-Apr-11 08:30N 20°31' W 086°57'0 0.0
2018-Apr-11 08:01N 20°31' W 086°57'0 0.0
2018-Apr-11 07:30N 20°31' W 086°57'0 0.0
2018-Apr-11 07:00N 20°31' W 086°57'0 0.0
2018-Apr-11 06:30N 20°31' W 086°57'0 0.0
2018-Apr-11 05:59N 20°31' W 086°57'0 0.0
2018-Apr-11 05:30N 20°31' W 086°57'0 0.0
2018-Apr-11 05:01N 20°31' W 086°57'0 0.0
2018-Apr-11 04:29N 20°31' W 086°57'0 0.1
2018-Apr-11 03:58N 20°31' W 086°57'3 1.5
2018-Apr-11 02:17N 20°32' W 086°59'3 9.5
2018-Apr-11 02:00N 20°31' W 086°57'3 1.5
2018-Apr-11 00:14N 20°33' W 086°59'312.2
2018-Apr-11 00:01N 20°31' W 086°57'3 1.8
2018-Apr-10 22:20N 20°33' W 086°60'3 9.6
2018-Apr-10 22:01N 20°31' W 086°57'3 1.5
2018-Apr-10 20:15N 20°32' W 086°59'311.2
2018-Apr-10 20:00N 20°31' W 086°57'2 1.3
2018-Apr-10 18:14N 20°32' W 086°59'2 7.0
2018-Apr-10 17:54N 20°31' W 086°57'3 1.6
2018-Apr-10 16:17N 20°33' W 086°59'3 9.2
2018-Apr-10 16:00N 20°31' W 086°57'2 1.2
2018-Apr-10 14:14N 20°32' W 086°59'2 8.0
2018-Apr-10 13:59N 20°31' W 086°57'  

Dump ship's entire track history